createdAt,value
2022-10-22T00:01:58.624Z,66.01
2022-10-22T00:04:32.750Z,65.88
2022-10-22T00:07:07.868Z,65.76
2022-10-22T00:09:37.650Z,65.94
2022-10-22T00:12:08.241Z,66.20
2022-10-22T00:14:38.354Z,66.19
2022-10-22T00:17:11.165Z,66.27
2022-10-22T00:19:41.670Z,66.44
2022-10-22T00:22:14.432Z,66.60
2022-10-22T00:24:44.577Z,66.43
2022-10-22T00:27:15.046Z,66.78
2022-10-22T00:29:45.387Z,66.54
2022-10-22T00:32:15.376Z,66.49
2022-10-22T00:34:45.188Z,66.65
2022-10-22T00:37:17.515Z,66.75
2022-10-22T00:39:50.008Z,66.42
2022-10-22T00:42:23.941Z,66.14
2022-10-22T00:45:22.151Z,66.22
2022-10-22T00:47:57.171Z,65.99
2022-10-22T00:50:31.361Z,66.03
2022-10-22T00:53:05.633Z,65.83
2022-10-22T00:55:36.090Z,65.52
2022-10-22T00:58:06.235Z,65.29
2022-10-22T01:00:36.210Z,65.57
2022-10-22T01:03:06.253Z,65.53
2022-10-22T01:05:43.010Z,65.52
2022-10-22T01:08:26.149Z,65.54
2022-10-22T01:11:07.585Z,65.70
2022-10-22T01:13:45.887Z,65.79
2022-10-22T01:16:25.445Z,65.43
2022-10-22T01:19:04.371Z,65.75
2022-10-22T01:21:38.936Z,65.67
2022-10-22T01:24:41.303Z,66.08
2022-10-22T01:27:23.886Z,66.46
2022-10-22T01:29:58.316Z,66.44
2022-10-22T01:32:32.102Z,66.29
2022-10-22T01:35:06.954Z,66.38
2022-10-22T01:37:42.148Z,66.56
2022-10-22T01:40:13.611Z,66.61
2022-10-22T01:42:43.455Z,66.68
2022-10-22T01:45:17.402Z,66.67
2022-10-22T01:47:59.872Z,66.70
2022-10-22T01:50:44.448Z,66.64
2022-10-22T01:53:24.461Z,66.68
2022-10-22T01:56:12.389Z,66.88
2022-10-22T01:58:48.230Z,66.76
2022-10-22T02:01:29.453Z,66.61
2022-10-22T02:04:04.935Z,66.89
2022-10-22T02:06:36.691Z,66.78
2022-10-22T02:09:07.791Z,66.67
2022-10-22T02:11:37.899Z,66.82
2022-10-22T02:14:08.290Z,66.65
2022-10-22T02:16:44.779Z,66.62
2022-10-22T02:19:18.841Z,66.67
2022-10-22T02:21:48.922Z,66.58
2022-10-22T02:24:20.387Z,66.62
2022-10-22T02:26:57.681Z,66.69
2022-10-22T02:29:31.554Z,66.45
2022-10-22T02:32:06.326Z,66.36
2022-10-22T02:34:36.324Z,66.23
2022-10-22T02:37:07.274Z,66.24
2022-10-22T02:39:38.714Z,65.99
2022-10-22T02:42:08.660Z,66.12
2022-10-22T02:44:38.653Z,66.02
2022-10-22T02:47:11.059Z,66.41
2022-10-22T02:49:40.815Z,66.46
2022-10-22T02:52:10.600Z,66.38
2022-10-22T02:54:40.367Z,66.40
2022-10-22T02:57:10.416Z,66.39
2022-10-22T02:59:40.151Z,66.37
2022-10-22T03:02:12.490Z,66.61
2022-10-22T03:04:43.682Z,66.67
2022-10-22T03:07:13.692Z,66.37
2022-10-22T03:09:43.455Z,66.61
2022-10-22T03:12:13.254Z,66.55
2022-10-22T03:14:43.038Z,66.74
2022-10-22T03:17:15.402Z,66.54
2022-10-22T03:19:45.185Z,66.50
2022-10-22T03:22:19.775Z,66.33
2022-10-22T03:24:53.534Z,66.14
2022-10-22T03:27:25.043Z,65.85
2022-10-22T03:29:55.641Z,65.71
2022-10-22T03:32:28.072Z,65.75
2022-10-22T03:34:57.913Z,65.65
2022-10-22T03:37:30.299Z,65.56
2022-10-22T03:40:00.553Z,65.62
2022-10-22T03:42:30.540Z,65.77
2022-10-22T03:45:00.307Z,65.70
2022-10-22T03:47:32.602Z,65.67
2022-10-22T03:50:02.363Z,65.39
2022-10-22T03:52:32.209Z,65.40
2022-10-22T03:55:01.950Z,65.50
2022-10-22T03:57:31.797Z,65.33
2022-10-22T04:00:02.115Z,65.27
2022-10-22T04:02:37.552Z,65.61
2022-10-22T04:05:07.997Z,65.24
2022-10-22T04:07:37.925Z,65.40
2022-10-22T04:10:09.177Z,65.42
2022-10-22T04:12:38.972Z,65.14
2022-10-22T04:15:10.088Z,65.25
2022-10-22T04:17:42.689Z,65.32
2022-10-22T04:20:13.972Z,65.01
2022-10-22T04:22:43.825Z,65.02
2022-10-22T04:25:13.637Z,65.05
2022-10-22T04:27:43.537Z,65.06
2022-10-22T04:30:14.664Z,65.14
2022-10-22T04:32:46.965Z,65.18
2022-10-22T04:35:17.008Z,65.19
2022-10-22T04:37:46.767Z,65.61
2022-10-22T04:40:16.534Z,65.59
2022-10-22T04:42:46.281Z,65.60
2022-10-22T04:45:16.233Z,65.86
2022-10-22T04:47:48.855Z,65.83
2022-10-22T04:50:18.877Z,66.09
2022-10-22T04:52:48.633Z,66.00
2022-10-22T04:55:18.624Z,65.79
2022-10-22T04:57:48.447Z,65.94
2022-10-22T05:00:18.877Z,65.93
2022-10-22T05:02:54.344Z,65.80
2022-10-22T05:05:24.077Z,65.76
2022-10-22T05:07:53.903Z,65.60
2022-10-22T05:10:23.677Z,65.65
2022-10-22T05:12:53.428Z,65.50
2022-10-22T05:15:23.124Z,65.76
2022-10-22T05:17:55.421Z,65.60
2022-10-22T05:20:25.119Z,65.47
2022-10-22T05:22:54.878Z,65.47
2022-10-22T05:25:24.640Z,65.57
2022-10-22T05:27:57.200Z,65.55
2022-10-22T05:30:28.171Z,65.40
2022-10-22T05:33:00.511Z,65.79
2022-10-22T05:35:30.527Z,65.66
2022-10-22T05:38:00.277Z,65.77
2022-10-22T05:40:31.544Z,65.63
2022-10-22T05:43:01.619Z,65.33
2022-10-22T05:45:31.330Z,65.51
2022-10-22T05:48:03.692Z,65.35
2022-10-22T05:50:34.007Z,65.38
2022-10-22T05:53:03.799Z,65.39
2022-10-22T05:55:36.932Z,65.26
2022-10-22T05:58:08.112Z,65.61
2022-10-22T06:00:37.873Z,65.41
2022-10-22T06:03:10.252Z,65.47
2022-10-22T06:05:40.647Z,65.64
2022-10-22T06:08:18.337Z,65.54
2022-10-22T06:10:49.011Z,65.33
2022-10-22T06:13:18.791Z,65.08
2022-10-22T06:15:48.547Z,65.00
2022-10-22T06:18:20.902Z,65.26
2022-10-22T06:20:50.645Z,64.99
2022-10-22T06:23:20.485Z,65.20
2022-10-22T06:25:59.438Z,65.26
2022-10-22T06:28:29.539Z,64.98
2022-10-22T06:31:01.212Z,65.08
2022-10-22T06:33:42.204Z,64.84
2022-10-22T06:36:14.635Z,64.65
2022-10-22T06:38:44.706Z,64.83
2022-10-22T06:41:17.038Z,64.84
2022-10-22T06:43:48.452Z,64.63
2022-10-22T06:46:21.266Z,64.59
2022-10-22T06:48:58.931Z,64.51
2022-10-22T06:51:29.924Z,64.70
2022-10-22T06:54:01.038Z,65.04
2022-10-22T06:56:31.428Z,65.10
2022-10-22T06:59:01.635Z,65.05
2022-10-22T07:01:34.202Z,65.09
2022-10-22T07:04:08.957Z,65.13
2022-10-22T07:06:39.051Z,65.01
2022-10-22T07:09:09.033Z,65.31
2022-10-22T07:11:43.400Z,65.25
2022-10-22T07:14:13.854Z,65.17
2022-10-22T07:16:45.795Z,65.18
2022-10-22T07:19:18.180Z,64.95
2022-10-22T07:21:47.944Z,65.06
2022-10-22T07:24:17.735Z,65.20
2022-10-22T07:26:47.489Z,65.27
2022-10-22T07:29:18.108Z,65.18
2022-10-22T07:31:48.106Z,65.09
2022-10-22T07:37:10.169Z,65.17
2022-10-22T07:39:40.195Z,65.07
2022-10-22T07:42:09.933Z,65.00
2022-10-22T07:44:39.703Z,64.80
2022-10-22T07:47:09.515Z,64.75
2022-10-22T07:49:41.892Z,64.69
2022-10-22T07:52:11.646Z,64.34
2022-10-22T07:54:41.514Z,64.48
2022-10-22T07:57:11.323Z,64.51
2022-10-22T07:59:41.257Z,64.33
2022-10-22T08:02:12.835Z,64.51
2022-10-22T08:04:45.385Z,64.50
2022-10-22T08:07:15.376Z,64.35
2022-10-22T08:09:45.337Z,64.67
2022-10-22T08:12:15.189Z,64.81
2022-10-22T08:14:45.093Z,64.90
2022-10-22T08:17:14.818Z,65.19
2022-10-22T08:19:47.336Z,65.10
2022-10-22T08:22:17.364Z,65.35
2022-10-22T08:24:47.195Z,65.29
2022-10-22T08:27:16.930Z,65.16
2022-10-22T08:29:46.689Z,65.23
2022-10-22T08:32:16.929Z,65.52
2022-10-22T08:34:49.336Z,65.45
2022-10-22T08:37:19.278Z,65.34
2022-10-22T08:39:49.059Z,65.37
2022-10-22T08:42:40.325Z,65.17
2022-10-22T08:45:16.055Z,65.05
2022-10-22T08:47:59.031Z,65.10
2022-10-22T08:50:38.442Z,65.22
2022-10-22T08:53:14.118Z,65.66
2022-10-22T08:55:44.646Z,65.46
2022-10-22T08:58:25.238Z,65.88
2022-10-22T09:01:01.358Z,65.61
2022-10-22T09:03:43.378Z,65.77
2022-10-22T09:06:18.795Z,65.97
2022-10-22T09:08:50.350Z,65.68
2022-10-22T09:11:33.390Z,65.65
2022-10-22T09:14:04.129Z,65.49
2022-10-22T09:16:40.082Z,65.33
2022-10-22T09:19:20.960Z,65.36
2022-10-22T09:22:02.390Z,65.46
2022-10-22T09:24:39.500Z,65.83
2022-10-22T09:27:15.298Z,65.41
2022-10-22T09:29:46.237Z,64.98
2022-10-22T09:32:16.546Z,64.82
2022-10-22T09:34:47.209Z,65.01
2022-10-22T09:37:21.618Z,64.78
2022-10-22T09:39:54.983Z,64.60
2022-10-22T09:42:25.694Z,64.31
2022-10-22T09:44:57.632Z,63.82
2022-10-22T09:47:43.437Z,63.65
2022-10-22T09:50:23.535Z,63.27
2022-10-22T09:53:02.630Z,63.24
2022-10-22T09:55:32.559Z,63.35
2022-10-22T09:58:05.122Z,63.33
2022-10-22T10:00:34.867Z,63.92
2022-10-22T10:03:05.159Z,64.25
2022-10-22T10:05:37.736Z,64.45
2022-10-22T10:08:16.303Z,64.36
2022-10-22T10:10:55.998Z,64.16
2022-10-22T10:13:41.175Z,64.22
2022-10-22T10:16:21.047Z,63.88
2022-10-22T10:19:09.405Z,63.56
2022-10-22T10:21:47.898Z,63.48
2022-10-22T10:24:30.293Z,64.18
2022-10-22T10:27:17.773Z,64.38
2022-10-22T10:29:54.023Z,64.35
2022-10-22T10:32:39.041Z,64.76
2022-10-22T10:35:23.096Z,64.59
2022-10-22T10:38:06.294Z,64.75
2022-10-22T10:40:45.330Z,64.92
2022-10-22T10:43:20.828Z,64.81
2022-10-22T10:46:00.268Z,64.57
2022-10-22T10:48:39.732Z,64.90
2022-10-22T10:51:18.449Z,64.70
2022-10-22T10:54:02.148Z,65.05
2022-10-22T10:56:42.054Z,64.77
2022-10-22T10:59:20.562Z,65.05
2022-10-22T11:02:02.766Z,65.08
2022-10-22T11:05:02.659Z,64.77
2022-10-22T11:07:40.124Z,64.20
2022-10-22T11:10:20.158Z,62.69
2022-10-22T11:12:58.921Z,61.80
2022-10-22T11:15:32.292Z,61.40
2022-10-22T11:18:11.611Z,60.49
2022-10-22T11:20:50.713Z,59.40
2022-10-22T11:23:28.371Z,59.30
2022-10-22T11:25:58.075Z,59.30
2022-10-22T11:28:36.712Z,59.31
2022-10-22T11:31:12.721Z,59.24
2022-10-22T11:33:49.857Z,59.08
2022-10-22T11:36:24.831Z,59.20
2022-10-22T11:38:54.987Z,59.56
2022-10-22T11:41:28.215Z,60.14
2022-10-22T11:44:12.716Z,58.91
2022-10-22T11:46:58.689Z,57.16
2022-10-22T11:49:30.691Z,53.92
2022-10-22T11:52:26.093Z,52.92
2022-10-22T11:55:00.743Z,50.89
2022-10-22T11:57:38.384Z,50.98
2022-10-22T12:00:34.051Z,52.74
2022-10-22T12:03:19.746Z,53.83
2022-10-22T12:05:49.644Z,53.20
2022-10-22T12:08:24.392Z,52.91
2022-10-22T12:13:59.283Z,50.20
2022-10-22T12:16:54.802Z,46.53
2022-10-22T12:19:32.808Z,45.27
2022-10-22T12:22:04.975Z,44.85
2022-10-22T12:24:40.590Z,45.19
2022-10-22T12:27:22.586Z,43.78
2022-10-22T12:29:58.192Z,43.95
2022-10-22T12:32:40.365Z,42.89
2022-10-22T12:35:19.083Z,42.49
2022-10-22T12:37:52.838Z,40.96
2022-10-22T12:40:25.946Z,37.41
2022-10-22T12:42:57.800Z,35.17
2022-10-22T12:45:30.851Z,35.09
2022-10-22T12:48:03.697Z,36.94
2022-10-22T12:50:39.590Z,39.25
2022-10-22T12:53:09.791Z,41.52
2022-10-22T12:55:39.660Z,42.64
2022-10-22T12:58:09.940Z,45.08
2022-10-22T13:00:41.477Z,46.14
2022-10-22T13:03:27.350Z,47.64
2022-10-22T13:05:59.753Z,49.10
2022-10-22T13:08:31.795Z,49.54
2022-10-22T13:11:10.836Z,49.01
2022-10-22T13:13:47.345Z,48.89
2022-10-22T13:16:24.354Z,49.81
2022-10-22T13:18:55.900Z,50.19
2022-10-22T13:21:31.632Z,51.01
2022-10-22T13:24:03.974Z,51.43
2022-10-22T13:26:36.942Z,52.68
2022-10-22T13:29:14.837Z,52.58
2022-10-22T13:31:50.115Z,52.44
2022-10-22T13:34:22.244Z,52.36
2022-10-22T13:36:55.115Z,52.65
2022-10-22T13:39:26.974Z,52.60
2022-10-22T13:41:56.732Z,52.34
2022-10-22T13:44:26.569Z,52.89
2022-10-22T13:46:56.400Z,53.43
2022-10-22T13:49:26.160Z,53.50
2022-10-22T13:51:59.234Z,53.87
2022-10-22T13:54:29.015Z,54.01
2022-10-22T13:56:58.772Z,53.66
2022-10-22T13:59:28.516Z,53.56
2022-10-22T14:01:58.335Z,53.59
2022-10-22T14:04:28.095Z,53.06
2022-10-22T14:07:03.710Z,53.11
2022-10-22T14:09:33.829Z,53.69
2022-10-22T14:12:04.477Z,53.54
2022-10-22T14:14:34.224Z,53.49
2022-10-22T14:17:04.721Z,53.61
2022-10-22T14:19:34.913Z,53.17
2022-10-22T14:22:07.455Z,53.12
2022-10-22T14:24:37.229Z,53.34
2022-10-22T14:27:07.056Z,53.41
2022-10-22T14:29:36.852Z,53.48
2022-10-22T14:32:06.906Z,53.79
2022-10-22T14:34:36.710Z,53.27
2022-10-22T14:37:16.300Z,53.06
2022-10-22T14:39:46.848Z,53.15
2022-10-22T14:42:17.091Z,53.42
2022-10-22T14:44:47.139Z,53.34
2022-10-22T14:47:16.872Z,53.55
2022-10-22T14:49:46.738Z,53.45
2022-10-22T14:52:20.269Z,53.66
2022-10-22T14:54:50.545Z,54.00
2022-10-22T14:57:20.484Z,53.55
2022-10-22T14:59:50.292Z,53.96
2022-10-22T15:02:20.065Z,53.97
2022-10-22T15:04:49.977Z,53.68
2022-10-22T15:07:24.770Z,53.93
2022-10-22T15:09:54.550Z,53.92
2022-10-22T15:12:24.566Z,54.17
2022-10-22T15:14:54.528Z,54.47
2022-10-22T15:17:24.293Z,54.88
2022-10-22T15:19:56.274Z,54.72
2022-10-22T15:22:28.630Z,55.00
2022-10-22T15:24:58.374Z,54.96
2022-10-22T15:27:28.634Z,55.29
2022-10-22T15:29:59.831Z,55.03
2022-10-22T15:32:32.383Z,55.31
2022-10-22T15:35:02.647Z,55.56
2022-10-22T15:37:37.815Z,55.54
2022-10-22T15:40:09.086Z,55.86
2022-10-22T15:42:39.214Z,55.51
2022-10-22T15:45:10.304Z,56.42
2022-10-22T15:47:40.304Z,56.09
2022-10-22T15:50:11.724Z,56.58
2022-10-22T15:52:44.102Z,56.44
2022-10-22T15:58:04.385Z,56.38
2022-10-22T16:00:35.272Z,56.78
2022-10-22T16:03:05.155Z,56.95
2022-10-22T16:05:34.943Z,56.86
2022-10-22T16:08:09.282Z,57.01
2022-10-22T16:10:39.138Z,56.99
2022-10-22T16:13:09.058Z,56.90
2022-10-22T16:15:38.875Z,57.10
2022-10-22T16:18:08.860Z,57.26
2022-10-22T16:20:41.594Z,57.21
2022-10-22T16:23:14.785Z,57.01
2022-10-22T16:25:45.328Z,57.41
2022-10-22T16:28:15.312Z,57.29
2022-10-22T16:30:45.207Z,57.22
2022-10-22T16:33:15.387Z,57.28
2022-10-22T16:35:45.525Z,57.40
2022-10-22T16:38:19.105Z,57.30
2022-10-22T16:40:49.469Z,57.51
2022-10-22T16:43:19.550Z,57.52
2022-10-22T16:45:53.031Z,57.53
2022-10-22T16:48:22.816Z,57.49
2022-10-22T16:50:52.559Z,57.49
2022-10-22T16:53:25.310Z,57.39
2022-10-22T16:55:55.144Z,57.57
2022-10-22T16:58:25.676Z,57.65
2022-10-22T17:00:55.523Z,57.13
2022-10-22T17:03:27.603Z,57.46
2022-10-22T17:06:01.069Z,57.26
2022-10-22T17:08:34.097Z,57.01
2022-10-22T17:11:09.208Z,57.19
2022-10-22T17:13:40.184Z,57.36
2022-10-22T17:16:13.143Z,57.64
2022-10-22T17:21:17.139Z,57.85
2022-10-22T17:23:50.013Z,57.90
2022-10-22T17:26:22.809Z,57.95
2022-10-22T17:28:52.910Z,57.72
2022-10-22T17:31:24.987Z,57.42
2022-10-22T17:33:57.043Z,57.87
2022-10-22T17:36:30.407Z,57.99
2022-10-22T17:39:07.931Z,57.71
2022-10-22T17:41:40.095Z,57.68
2022-10-22T17:44:12.354Z,58.17
2022-10-22T17:46:43.843Z,57.83
2022-10-22T17:49:19.362Z,58.29
2022-10-22T17:51:49.261Z,58.31
2022-10-22T17:54:21.794Z,58.76
2022-10-22T17:56:51.641Z,58.44
2022-10-22T17:59:21.447Z,58.54
2022-10-22T18:01:51.295Z,58.68
2022-10-22T18:04:23.886Z,58.96
2022-10-22T18:06:53.651Z,58.70
2022-10-22T18:09:26.386Z,58.88
2022-10-22T18:11:57.367Z,58.94
2022-10-22T18:14:27.322Z,58.92
2022-10-22T18:16:57.369Z,58.84
2022-10-22T18:19:27.146Z,58.99
2022-10-22T18:21:56.921Z,59.00
2022-10-22T18:24:29.522Z,59.08
2022-10-22T18:26:59.273Z,58.77
2022-10-22T18:29:29.105Z,58.91
2022-10-22T18:31:59.229Z,58.81
2022-10-22T18:34:30.397Z,58.83
2022-10-22T18:37:00.151Z,58.46
2022-10-22T18:39:32.511Z,58.64
2022-10-22T18:42:06.347Z,58.62
2022-10-22T18:44:37.349Z,58.60
2022-10-22T18:47:08.712Z,58.81
2022-10-22T18:49:38.480Z,58.80
2022-10-22T18:52:08.591Z,58.84
2022-10-22T18:54:40.986Z,58.62
2022-10-22T18:57:10.910Z,58.82
2022-10-22T18:59:41.121Z,59.00
2022-10-22T19:02:16.106Z,59.23
2022-10-22T19:04:46.426Z,58.76
2022-10-22T19:07:16.339Z,59.23
2022-10-22T19:09:48.694Z,59.16
2022-10-22T19:12:21.631Z,58.98
2022-10-22T19:14:51.896Z,59.13
2022-10-22T19:17:21.815Z,59.36
2022-10-22T19:19:51.894Z,59.17
2022-10-22T19:22:21.685Z,58.92
2022-10-22T19:24:54.576Z,59.23
2022-10-22T19:27:24.421Z,58.99
2022-10-22T19:29:54.222Z,59.23
2022-10-22T19:32:26.296Z,59.34
2022-10-22T19:34:59.287Z,59.17
2022-10-22T19:37:29.642Z,59.21
2022-10-22T19:40:02.342Z,59.37
2022-10-22T19:42:32.296Z,59.35
2022-10-22T19:45:02.190Z,59.31
2022-10-22T19:47:32.010Z,59.80
2022-10-22T19:50:02.091Z,59.79
2022-10-22T19:52:31.826Z,59.80
2022-10-22T19:55:04.955Z,59.86
2022-10-22T19:57:34.950Z,59.91
2022-10-22T20:00:04.878Z,59.90
2022-10-22T20:02:40.955Z,59.54
2022-10-22T20:05:11.877Z,59.70
2022-10-22T20:07:42.052Z,59.95
2022-10-22T20:10:15.260Z,60.08
2022-10-22T20:12:45.025Z,60.28
2022-10-22T20:15:14.769Z,60.33
2022-10-22T20:17:44.858Z,60.37
2022-10-22T20:20:14.744Z,60.15
2022-10-22T20:22:44.870Z,59.78
2022-10-22T20:25:17.719Z,59.99
2022-10-22T20:27:47.813Z,59.87
2022-10-22T20:30:19.653Z,59.82
2022-10-22T20:32:51.167Z,59.97
2022-10-22T20:35:21.525Z,59.43
2022-10-22T20:37:51.416Z,59.76
2022-10-22T20:40:26.147Z,59.76
2022-10-22T20:42:55.941Z,59.30
2022-10-22T20:45:25.683Z,59.42
2022-10-22T20:48:02.087Z,59.29
2022-10-22T20:50:34.153Z,59.37
2022-10-22T20:53:03.992Z,59.06
2022-10-22T20:55:36.404Z,58.67
2022-10-22T20:58:06.318Z,58.74
2022-10-22T21:00:39.160Z,58.98
2022-10-22T21:03:08.954Z,58.67
2022-10-22T21:05:38.773Z,58.95
2022-10-22T21:08:10.429Z,58.87
2022-10-22T21:10:42.791Z,59.13
2022-10-22T21:13:12.615Z,58.89
2022-10-22T21:15:42.460Z,59.06
2022-10-22T21:18:12.283Z,59.00
2022-10-22T21:20:42.301Z,59.10
2022-10-22T21:23:12.054Z,59.28
2022-10-22T21:25:44.498Z,59.07
2022-10-22T21:28:14.241Z,59.16
2022-10-22T21:30:47.553Z,59.04
2022-10-22T21:33:17.369Z,59.41
2022-10-22T21:35:53.772Z,59.17
2022-10-22T21:38:24.858Z,59.11
2022-10-22T21:40:57.248Z,59.11
2022-10-22T21:43:27.212Z,59.09
2022-10-22T21:46:07.987Z,58.96
2022-10-22T21:48:40.404Z,59.29
2022-10-22T21:51:12.251Z,59.13
2022-10-22T21:53:42.163Z,58.86
2022-10-22T21:56:17.870Z,59.09
2022-10-22T21:58:47.916Z,59.13
2022-10-22T22:01:18.511Z,59.06
2022-10-22T22:03:51.610Z,59.28
2022-10-22T22:06:22.658Z,59.19
2022-10-22T22:08:54.238Z,58.98
2022-10-22T22:11:28.630Z,59.29
2022-10-22T22:14:00.444Z,59.33
2022-10-22T22:16:32.771Z,59.53
2022-10-22T22:21:54.527Z,59.12
2022-10-22T22:24:24.296Z,59.02
2022-10-22T22:26:56.764Z,59.10
2022-10-22T22:29:26.564Z,58.99
2022-10-22T22:31:56.376Z,58.91
2022-10-22T22:34:26.141Z,58.98
2022-10-22T22:36:55.933Z,58.98
2022-10-22T22:39:26.155Z,59.01
2022-10-22T22:41:58.527Z,59.03
2022-10-22T22:44:28.551Z,58.81
2022-10-22T22:46:58.341Z,58.68
2022-10-22T22:49:28.105Z,58.92
2022-10-22T22:51:57.937Z,58.94
2022-10-22T22:54:27.996Z,58.59
2022-10-22T22:57:00.333Z,58.74
2022-10-22T22:59:30.139Z,58.75
2022-10-22T23:02:00.172Z,58.59
2022-10-22T23:04:30.418Z,58.67
2022-10-22T23:07:00.264Z,58.37
2022-10-22T23:09:30.294Z,58.58
2022-10-22T23:12:02.695Z,58.57
2022-10-22T23:14:32.506Z,58.76
2022-10-22T23:17:02.296Z,59.05
2022-10-22T23:19:32.136Z,58.91
2022-10-22T23:22:01.882Z,58.93
2022-10-22T23:24:32.404Z,58.97
2022-10-22T23:27:06.226Z,58.99
2022-10-22T23:29:38.802Z,59.30
2022-10-22T23:32:14.613Z,59.30
2022-10-22T23:34:44.428Z,59.22
2022-10-22T23:37:14.945Z,59.66
2022-10-22T23:39:44.733Z,59.25
2022-10-22T23:42:17.092Z,59.46
2022-10-22T23:44:46.850Z,59.66
2022-10-22T23:47:16.714Z,59.23
2022-10-22T23:49:46.490Z,59.33
2022-10-22T23:52:16.307Z,59.22
2022-10-22T23:54:46.175Z,59.61
2022-10-22T23:57:18.567Z,59.66
2022-10-22T23:59:48.419Z,59.65
